createdAt,value
2019-05-02T00:03:17.479Z,72.97
2019-05-02T00:08:21.277Z,73.03
2019-05-02T00:13:24.091Z,73.31
2019-05-02T00:18:26.982Z,73.32
2019-05-02T00:23:29.673Z,73.35
2019-05-02T00:28:32.362Z,73.48
2019-05-02T00:33:35.863Z,73.47
2019-05-02T00:38:39.902Z,73.36
2019-05-02T00:43:42.834Z,73.17
2019-05-02T00:48:59.749Z,73.03
2019-05-02T00:54:03.237Z,72.74
2019-05-02T00:59:07.343Z,72.57
2019-05-02T01:04:17.630Z,72.26
2019-05-02T01:09:20.323Z,71.97
2019-05-02T01:14:27.218Z,71.89
2019-05-02T01:19:27.616Z,71.83
2019-05-02T01:24:34.282Z,71.67
2019-05-02T01:29:42.607Z,71.84
2019-05-02T01:35:00.240Z,72.45
2019-05-02T01:40:03.649Z,72.66
2019-05-02T01:45:06.863Z,72.46
2019-05-02T01:50:11.946Z,72.05
2019-05-02T01:55:17.092Z,71.80
2019-05-02T02:00:20.378Z,71.76
2019-05-02T02:05:23.069Z,71.51
2019-05-02T02:10:25.765Z,71.33
2019-05-02T02:15:29.068Z,71.06
2019-05-02T02:20:45.172Z,70.85
2019-05-02T02:25:55.505Z,70.95
2019-05-02T02:31:04.952Z,71.01
2019-05-02T02:36:03.108Z,70.89
2019-05-02T02:41:12.159Z,71.02
2019-05-02T02:46:30.818Z,71.06
2019-05-02T02:51:32.049Z,70.97
2019-05-02T02:56:40.433Z,71.62
2019-05-02T03:01:39.345Z,71.94
2019-05-02T03:06:44.821Z,71.80
2019-05-02T03:12:06.352Z,71.59
2019-05-02T03:17:09.157Z,71.67
2019-05-02T03:22:11.852Z,71.66
2019-05-02T03:27:15.490Z,71.91
2019-05-02T03:32:32.137Z,72.06
2019-05-02T03:37:22.982Z,72.63
2019-05-02T03:42:25.810Z,72.62
2019-05-02T03:47:28.906Z,72.65
2019-05-02T03:52:36.697Z,72.90
2019-05-02T03:57:36.388Z,72.81
2019-05-02T04:02:39.642Z,72.85
2019-05-02T04:07:42.548Z,73.01
2019-05-02T04:12:45.456Z,72.97
2019-05-02T04:17:51.705Z,72.91
2019-05-02T04:22:54.690Z,73.21
2019-05-02T04:28:05.767Z,73.50
2019-05-02T04:33:06.824Z,73.39
2019-05-02T04:38:19.681Z,73.40
2019-05-02T04:43:14.133Z,73.25
2019-05-02T04:48:18.450Z,72.79
2019-05-02T04:53:26.063Z,72.68
2019-05-02T04:58:31.429Z,72.66
2019-05-02T05:03:30.611Z,72.70
2019-05-02T05:08:33.315Z,72.82
2019-05-02T05:13:37.388Z,73.21
2019-05-02T05:18:43.874Z,73.44
2019-05-02T05:24:04.557Z,73.25
2019-05-02T05:29:08.258Z,73.16
2019-05-02T05:34:11.145Z,73.00
2019-05-02T05:39:13.859Z,72.39
2019-05-02T05:44:18.069Z,72.15
2019-05-02T05:49:21.866Z,72.24
2019-05-02T05:54:24.682Z,71.76
2019-05-02T05:59:31.923Z,71.68
2019-05-02T06:04:33.272Z,71.53
2019-05-02T06:09:36.200Z,71.02
2019-05-02T06:14:38.890Z,70.76
2019-05-02T06:19:41.586Z,70.64
2019-05-02T06:24:46.179Z,70.74
2019-05-02T06:29:51.119Z,70.57
2019-05-02T06:34:53.490Z,70.35
2019-05-02T06:39:56.700Z,70.52
2019-05-02T06:45:01.002Z,70.50
2019-05-02T06:50:05.170Z,70.36
2019-05-02T06:55:08.815Z,70.13
2019-05-02T07:00:12.194Z,70.21
2019-05-02T07:05:14.917Z,70.06
2019-05-02T07:10:20.122Z,69.61
2019-05-02T07:15:38.439Z,69.63
2019-05-02T07:20:42.342Z,69.36
2019-05-02T07:25:45.306Z,69.19
2019-05-02T07:30:48.280Z,68.99
2019-05-02T07:35:55.209Z,69.26
2019-05-02T07:40:55.758Z,69.05
2019-05-02T07:45:58.458Z,69.15
2019-05-02T07:51:02.559Z,69.04
2019-05-02T07:56:05.435Z,69.12
2019-05-02T08:01:13.599Z,69.58
2019-05-02T08:06:12.894Z,68.90
2019-05-02T08:11:15.608Z,68.88
2019-05-02T08:16:22.367Z,68.60
2019-05-02T08:21:27.289Z,68.08
2019-05-02T08:26:43.651Z,68.58
2019-05-02T08:31:46.669Z,67.72
2019-05-02T08:36:49.397Z,67.49
2019-05-02T08:41:56.387Z,66.98
2019-05-02T08:46:56.740Z,67.14
2019-05-02T08:51:59.470Z,66.25
2019-05-02T08:57:02.199Z,65.55
2019-05-02T09:02:04.913Z,65.41
2019-05-02T09:07:07.950Z,65.75
2019-05-02T09:12:13.237Z,64.81
2019-05-02T09:17:16.689Z,64.73
2019-05-02T09:22:19.521Z,63.53
2019-05-02T09:27:22.524Z,62.97
2019-05-02T09:32:26.591Z,62.54
2019-05-02T09:37:32.006Z,61.98
2019-05-02T09:42:34.661Z,61.48
2019-05-02T09:47:52.898Z,61.48
2019-05-02T09:52:44.177Z,61.91
2019-05-02T09:57:46.632Z,61.79
2019-05-02T10:02:49.434Z,61.47
2019-05-02T10:07:52.578Z,62.00
2019-05-02T10:12:55.478Z,61.90
2019-05-02T10:18:08.763Z,61.71
2019-05-02T10:23:03.330Z,61.18
2019-05-02T10:28:06.061Z,59.68
2019-05-02T10:33:08.791Z,60.28
2019-05-02T10:38:17.564Z,59.41
2019-05-02T10:43:16.274Z,59.02
2019-05-02T10:48:27.396Z,59.31
2019-05-02T10:53:23.676Z,58.80
2019-05-02T10:58:34.150Z,58.77
2019-05-02T11:03:38.128Z,58.04
2019-05-02T11:08:45.984Z,57.65
2019-05-02T11:14:01.119Z,57.28
2019-05-02T11:19:05.161Z,57.37
2019-05-02T11:24:07.881Z,56.49
2019-05-02T11:29:12.102Z,56.80
2019-05-02T11:34:15.134Z,56.15
2019-05-02T11:39:25.278Z,56.53
2019-05-02T11:44:22.750Z,57.04
2019-05-02T11:49:25.503Z,56.56
2019-05-02T11:54:28.229Z,57.07
2019-05-02T11:59:31.968Z,56.96
2019-05-02T12:04:34.971Z,57.56
2019-05-02T12:09:37.701Z,58.02
2019-05-02T12:14:41.893Z,58.63
2019-05-02T12:19:44.756Z,59.28
2019-05-02T12:24:47.503Z,59.51
2019-05-02T12:29:57.857Z,60.35
2019-05-02T12:34:55.157Z,60.17
2019-05-02T12:39:58.141Z,59.75
2019-05-02T12:45:02.862Z,59.37
2019-05-02T12:50:06.659Z,58.36
2019-05-02T12:55:09.569Z,59.20
2019-05-02T13:00:14.479Z,59.58
2019-05-02T13:05:17.222Z,59.04
2019-05-02T13:10:43.470Z,59.29
2019-05-02T13:15:46.302Z,59.05
2019-05-02T13:20:49.337Z,58.91
2019-05-02T13:25:52.177Z,58.95
2019-05-02T13:31:07.574Z,61.54
2019-05-02T13:36:45.233Z,61.93
2019-05-02T13:41:48.088Z,64.85
2019-05-02T13:46:50.954Z,66.90
2019-05-02T13:51:55.735Z,68.00
2019-05-02T13:56:58.473Z,68.31
2019-05-02T14:02:02.748Z,69.06
2019-05-02T14:07:07.584Z,69.67
2019-05-02T14:12:36.098Z,68.40
2019-05-02T14:17:38.924Z,68.60
2019-05-02T14:22:42.459Z,68.74
2019-05-02T14:27:52.424Z,68.07
2019-05-02T14:32:52.786Z,68.09
2019-05-02T14:38:13.140Z,68.35
2019-05-02T14:43:38.123Z,68.01
2019-05-02T14:48:45.335Z,68.73
2019-05-02T14:53:48.698Z,68.58
2019-05-02T14:58:52.855Z,68.28
2019-05-02T15:03:58.214Z,67.10
2019-05-02T15:09:02.468Z,65.79
2019-05-02T15:14:05.092Z,64.82
2019-05-02T15:19:07.935Z,64.39
2019-05-02T15:24:11.909Z,63.96
2019-05-02T15:29:19.646Z,64.54
2019-05-02T15:34:52.526Z,65.43
2019-05-02T15:45:01.885Z,67.27
2019-05-02T15:50:05.635Z,67.42
2019-05-02T15:55:11.476Z,66.33
2019-05-02T16:00:22.979Z,65.19
2019-05-02T16:05:24.205Z,64.06
2019-05-02T16:10:31.030Z,63.32
2019-05-02T16:15:32.643Z,64.22
2019-05-02T16:21:06.966Z,64.81
2019-05-02T16:26:08.717Z,64.95
2019-05-02T16:31:12.607Z,64.39
2019-05-02T16:36:15.538Z,64.23
2019-05-02T16:41:18.273Z,64.76
2019-05-02T16:46:21.692Z,65.18
2019-05-02T16:51:30.779Z,64.96
2019-05-02T16:56:29.196Z,65.20
2019-05-02T17:01:32.760Z,65.54
2019-05-02T17:06:37.529Z,65.27
2019-05-02T17:11:42.162Z,65.41
2019-05-02T17:16:47.081Z,65.14
2019-05-02T17:21:55.434Z,65.35
2019-05-02T17:26:55.832Z,65.77
2019-05-02T17:31:59.896Z,66.08
2019-05-02T17:37:06.215Z,66.49
2019-05-02T17:42:07.368Z,66.38
2019-05-02T17:47:10.139Z,66.52
2019-05-02T17:52:27.130Z,67.03
2019-05-02T17:57:33.361Z,67.22
2019-05-02T18:02:35.106Z,67.62
2019-05-02T18:07:37.870Z,67.75
2019-05-02T18:12:42.795Z,67.63
2019-05-02T18:17:45.439Z,67.58
2019-05-02T18:22:49.076Z,67.32
2019-05-02T18:27:54.225Z,67.47
2019-05-02T18:32:57.898Z,69.96
2019-05-02T18:38:02.635Z,70.30
2019-05-02T18:43:05.572Z,70.17
2019-05-02T18:48:08.490Z,70.17
2019-05-02T18:53:13.578Z,70.54
2019-05-02T18:58:16.505Z,70.78
2019-05-02T19:03:19.232Z,70.80
2019-05-02T19:08:29.049Z,70.70
2019-05-02T19:13:29.617Z,70.77
2019-05-02T19:18:32.463Z,70.66
2019-05-02T19:23:36.322Z,70.47
2019-05-02T19:29:02.803Z,70.35
2019-05-02T19:34:05.540Z,70.43
2019-05-02T19:39:09.910Z,70.68
2019-05-02T19:44:15.234Z,70.61
2019-05-02T19:49:17.638Z,71.05
2019-05-02T19:54:21.879Z,71.54
2019-05-02T19:59:26.424Z,71.28
2019-05-02T20:04:29.429Z,71.19
2019-05-02T20:09:33.045Z,70.54
2019-05-02T20:14:38.250Z,69.82
2019-05-02T20:19:42.883Z,69.60
2019-05-02T20:24:55.286Z,69.29
2019-05-02T20:29:57.044Z,69.28
2019-05-02T20:34:59.798Z,69.83
2019-05-02T20:40:03.038Z,70.53
2019-05-02T20:45:06.155Z,70.83
2019-05-02T20:50:09.106Z,70.98
2019-05-02T20:55:12.259Z,71.27
2019-05-02T21:00:23.562Z,71.48
2019-05-02T21:05:33.805Z,71.75
2019-05-02T21:10:39.200Z,71.30
2019-05-02T21:15:41.915Z,71.58
2019-05-02T21:20:44.619Z,71.72
2019-05-02T21:25:47.324Z,71.61
2019-05-02T21:30:52.193Z,70.90
2019-05-02T21:35:54.689Z,70.50
2019-05-02T21:40:57.511Z,70.55
2019-05-02T21:46:02.249Z,70.34
2019-05-02T21:51:16.391Z,70.29
2019-05-02T21:56:42.922Z,70.05
2019-05-02T22:01:54.893Z,69.71
2019-05-02T22:06:57.633Z,69.27
2019-05-02T22:12:00.701Z,69.22
2019-05-02T22:17:04.475Z,69.28
2019-05-02T22:22:07.194Z,69.51
2019-05-02T22:27:09.920Z,69.28
2019-05-02T22:32:12.672Z,69.67
2019-05-02T22:37:17.425Z,69.88
2019-05-02T22:42:21.881Z,70.79
2019-05-02T22:47:24.758Z,71.67
2019-05-02T22:52:27.473Z,72.30
2019-05-02T22:57:31.803Z,72.69
2019-05-02T23:02:34.715Z,74.14
2019-05-02T23:07:37.446Z,74.42
2019-05-02T23:12:42.283Z,74.62
2019-05-02T23:17:44.817Z,74.70
2019-05-02T23:22:47.551Z,74.25
2019-05-02T23:27:54.121Z,74.01
2019-05-02T23:32:56.850Z,73.77
2019-05-02T23:37:59.602Z,73.17
2019-05-02T23:43:02.334Z,72.90
2019-05-02T23:48:05.060Z,72.16
2019-05-02T23:53:07.792Z,72.34
2019-05-02T23:58:11.962Z,71.58
